createdAt,value
2018-06-28T00:00:10.546Z,102009.64
2018-06-28T00:02:38.686Z,102008.02
2018-06-28T00:05:06.890Z,102009.67
2018-06-28T00:07:35.331Z,102006.06
2018-06-28T00:10:03.650Z,102005.44
2018-06-28T00:12:31.776Z,102003.45
2018-06-28T00:15:00.218Z,102005.30
2018-06-28T00:17:28.341Z,102001.87
2018-06-28T00:19:56.786Z,102009.78
2018-06-28T00:22:25.253Z,102011.44
2018-06-28T00:24:53.340Z,102014.42
2018-06-28T00:27:21.459Z,102012.97
2018-06-28T00:29:49.898Z,102015.10
2018-06-28T00:32:18.353Z,102020.91
2018-06-28T00:34:46.445Z,102021.78
2018-06-28T00:37:14.565Z,102020.34
2018-06-28T00:39:42.710Z,102020.36
2018-06-28T00:42:11.159Z,102019.77
2018-06-28T00:44:39.592Z,102018.42
2018-06-28T00:47:07.718Z,102016.23
2018-06-28T00:49:36.174Z,102021.70
2018-06-28T00:52:04.283Z,102022.70
2018-06-28T00:54:32.753Z,102028.16
2018-06-28T00:57:01.246Z,102024.46
2018-06-28T00:59:29.533Z,102027.33
2018-06-28T01:01:57.972Z,102032.08
2018-06-28T01:04:26.309Z,102032.33
2018-06-28T01:06:54.837Z,102028.39
2018-06-28T01:09:23.289Z,102029.89
2018-06-28T01:11:51.817Z,102035.81
2018-06-28T01:14:20.265Z,102034.59
2018-06-28T01:16:48.736Z,102037.41
2018-06-28T01:19:16.869Z,102028.41
2018-06-28T01:21:45.325Z,102029.15
2018-06-28T01:24:13.461Z,102020.13
2018-06-28T01:26:42.009Z,102026.93
2018-06-28T01:29:10.133Z,102020.27
2018-06-28T01:31:38.818Z,102018.91
2018-06-28T01:34:06.955Z,102020.73
2018-06-28T01:36:36.389Z,102018.16
2018-06-28T01:39:07.877Z,102018.16
2018-06-28T01:41:47.657Z,102020.63
2018-06-28T01:44:16.114Z,102017.91
2018-06-28T01:46:44.599Z,102020.14
2018-06-28T01:49:13.218Z,102013.20
2018-06-28T01:51:41.857Z,102020.89
2018-06-28T01:54:10.309Z,102021.59
2018-06-28T01:56:38.410Z,102024.34
2018-06-28T01:59:07.315Z,102021.85
2018-06-28T02:01:35.758Z,102021.23
2018-06-28T02:04:10.354Z,102018.73
2018-06-28T02:06:38.994Z,102018.12
2018-06-28T02:09:08.761Z,102023.55
2018-06-28T02:11:37.342Z,102018.84
2018-06-28T02:14:05.533Z,102015.95
2018-06-28T02:16:33.982Z,102019.27
2018-06-28T02:19:02.105Z,102016.19
2018-06-28T02:21:30.554Z,102019.26
2018-06-28T02:23:59.023Z,102014.18
2018-06-28T02:26:27.701Z,102010.31
2018-06-28T02:28:56.153Z,102009.94
2018-06-28T02:31:24.602Z,102014.36
2018-06-28T02:33:53.305Z,102008.91
2018-06-28T02:36:22.034Z,102015.44
2018-06-28T02:38:50.483Z,102011.12
2018-06-28T02:41:18.586Z,102010.96
2018-06-28T02:43:46.930Z,102011.31
2018-06-28T02:46:15.035Z,102012.03
2018-06-28T02:48:43.206Z,102013.14
2018-06-28T02:51:11.638Z,102008.81
2018-06-28T02:53:39.985Z,102016.67
2018-06-28T02:56:08.086Z,102012.09
2018-06-28T02:58:36.761Z,102015.91
2018-06-28T03:01:05.065Z,102012.56
2018-06-28T03:03:33.729Z,102020.33
2018-06-28T03:06:02.342Z,102014.14
2018-06-28T03:08:30.473Z,102010.41
2018-06-28T03:10:58.797Z,102014.82
2018-06-28T03:13:26.905Z,102015.55
2018-06-28T03:15:55.246Z,102015.41
2018-06-28T03:18:23.918Z,102021.64
2018-06-28T03:20:52.240Z,102018.38
2018-06-28T03:23:20.352Z,102014.66
2018-06-28T03:25:49.045Z,102018.68
2018-06-28T03:28:17.493Z,102019.52
2018-06-28T03:30:45.652Z,102025.53
2018-06-28T03:33:14.279Z,102021.20
2018-06-28T03:35:42.728Z,102021.33
2018-06-28T03:38:11.214Z,102027.72
2018-06-28T03:40:39.877Z,102025.61
2018-06-28T03:43:08.509Z,102020.56
2018-06-28T03:45:37.203Z,102021.41
2018-06-28T03:48:05.317Z,102015.14
2018-06-28T03:50:33.774Z,102017.34
2018-06-28T03:53:02.309Z,102019.47
2018-06-28T03:55:30.758Z,102027.01
2018-06-28T03:57:59.782Z,102029.59
2018-06-28T04:00:27.962Z,102030.36
2018-06-28T04:02:56.066Z,102031.77
2018-06-28T04:05:24.189Z,102030.59
2018-06-28T04:07:52.297Z,102022.83
2018-06-28T04:10:20.638Z,102026.98
2018-06-28T04:12:49.130Z,102028.57
2018-06-28T04:15:17.606Z,102032.36
2018-06-28T04:17:45.701Z,102032.77
2018-06-28T04:20:14.182Z,102036.38
2018-06-28T04:22:42.543Z,102034.56
2018-06-28T04:25:11.006Z,102035.86
2018-06-28T04:27:39.471Z,102036.39
2018-06-28T04:30:07.924Z,102038.04
2018-06-28T04:32:36.238Z,102039.43
2018-06-28T04:35:04.419Z,102036.59
2018-06-28T04:37:33.102Z,102031.50
2018-06-28T04:40:01.553Z,102039.05
2018-06-28T04:42:29.999Z,102034.48
2018-06-28T04:44:58.674Z,102027.64
2018-06-28T04:47:27.093Z,102026.40
2018-06-28T04:49:55.266Z,102025.12
2018-06-28T04:52:23.533Z,102027.19
2018-06-28T04:54:51.641Z,102021.71
2018-06-28T04:57:20.338Z,102022.52
2018-06-28T04:59:48.463Z,102019.84
2018-06-28T05:02:17.122Z,102021.68
2018-06-28T05:04:45.805Z,102016.20
2018-06-28T05:07:13.942Z,102013.59
2018-06-28T05:09:50.130Z,102012.66
2018-06-28T05:12:18.598Z,102009.08
2018-06-28T05:14:46.783Z,102016.77
2018-06-28T05:17:15.366Z,102014.05
2018-06-28T05:19:43.815Z,102007.13
2018-06-28T05:22:11.945Z,102010.44
2018-06-28T05:24:40.402Z,102005.19
2018-06-28T05:27:09.042Z,102007.88
2018-06-28T05:29:37.511Z,102001.28
2018-06-28T05:32:05.995Z,102001.25
2018-06-28T05:34:34.113Z,101999.63
2018-06-28T05:37:02.777Z,101990.81
2018-06-28T05:39:31.217Z,101995.55
2018-06-28T05:41:59.674Z,102001.80
2018-06-28T05:44:28.399Z,102001.77
2018-06-28T05:46:56.862Z,101998.73
2018-06-28T05:49:25.546Z,102007.81
2018-06-28T05:51:54.213Z,102001.87
2018-06-28T05:54:22.656Z,102000.70
2018-06-28T05:56:51.329Z,101998.03
2018-06-28T05:59:19.612Z,102005.14
2018-06-28T06:01:48.061Z,102008.56
2018-06-28T06:04:16.185Z,102014.72
2018-06-28T06:06:44.565Z,102010.39
2018-06-28T06:09:12.694Z,102014.57
2018-06-28T06:11:40.811Z,102016.95
2018-06-28T06:14:09.146Z,102014.25
2018-06-28T06:16:37.642Z,102016.55
2018-06-28T06:19:06.082Z,102013.39
2018-06-28T06:21:34.365Z,102015.05
2018-06-28T06:24:02.825Z,102013.92
2018-06-28T06:26:31.296Z,102006.72
2018-06-28T06:28:59.389Z,102014.92
2018-06-28T06:31:28.090Z,102014.75
2018-06-28T06:33:56.606Z,102006.27
2018-06-28T06:36:25.111Z,102008.42
2018-06-28T06:38:53.378Z,102013.33
2018-06-28T06:41:21.932Z,102013.66
2018-06-28T06:43:50.661Z,102005.19
2018-06-28T06:46:18.749Z,102006.36
2018-06-28T06:48:46.960Z,102006.03
2018-06-28T06:51:15.195Z,102003.07
2018-06-28T06:53:43.730Z,101996.19
2018-06-28T06:56:12.082Z,101999.77
2018-06-28T06:58:40.218Z,102010.20
2018-06-28T07:01:08.343Z,102006.28
2018-06-28T07:03:36.869Z,102004.62
2018-06-28T07:06:05.444Z,102004.52
2018-06-28T07:08:33.895Z,102011.61
2018-06-28T07:11:02.510Z,102008.55
2018-06-28T07:13:30.957Z,102007.70
2018-06-28T07:15:59.091Z,102008.39
2018-06-28T07:18:27.978Z,102010.47
2018-06-28T07:20:56.078Z,102005.31
2018-06-28T07:23:24.523Z,101998.78
2018-06-28T07:25:53.213Z,102002.89
2018-06-28T07:28:21.622Z,101995.36
2018-06-28T07:30:49.921Z,101996.02
2018-06-28T07:33:18.610Z,101996.17
2018-06-28T07:35:47.079Z,101997.50
2018-06-28T07:38:15.950Z,101993.19
2018-06-28T07:40:44.410Z,101996.50
2018-06-28T07:43:12.897Z,101999.94
2018-06-28T07:45:41.614Z,101997.85
2018-06-28T07:48:10.277Z,101998.11
2018-06-28T07:50:38.933Z,101998.38
2018-06-28T07:53:07.055Z,101999.83
2018-06-28T07:55:35.360Z,101999.06
2018-06-28T07:58:04.022Z,102000.14
2018-06-28T08:00:32.294Z,101993.84
2018-06-28T08:03:00.651Z,101991.58
2018-06-28T08:05:29.185Z,101985.59
2018-06-28T08:07:57.637Z,101987.25
2018-06-28T08:10:25.996Z,101987.72
2018-06-28T08:12:54.709Z,101983.46
2018-06-28T08:15:23.151Z,101983.86
2018-06-28T08:17:51.278Z,101982.26
2018-06-28T08:20:19.388Z,101984.28
2018-06-28T08:22:47.905Z,101975.48
2018-06-28T08:25:16.557Z,101979.95
2018-06-28T08:27:45.019Z,101972.28
2018-06-28T08:30:13.215Z,101973.19
2018-06-28T08:32:41.646Z,101977.01
2018-06-28T08:35:09.774Z,101973.20
2018-06-28T08:37:38.219Z,101975.87
2018-06-28T08:40:06.332Z,101973.30
2018-06-28T08:42:34.789Z,101976.69
2018-06-28T08:45:03.345Z,101973.79
2018-06-28T08:47:31.790Z,101972.05
2018-06-28T08:50:00.607Z,101971.72
2018-06-28T08:52:29.073Z,101974.82
2018-06-28T08:54:57.757Z,101970.89
2018-06-28T08:57:25.869Z,101966.99
2018-06-28T08:59:54.012Z,101974.27
2018-06-28T09:02:22.120Z,101973.72
2018-06-28T09:04:50.248Z,101971.47
2018-06-28T09:07:18.946Z,101962.75
2018-06-28T09:09:47.267Z,101966.27
2018-06-28T09:12:15.945Z,101967.30
2018-06-28T09:14:44.076Z,101963.29
2018-06-28T09:17:12.194Z,101962.99
2018-06-28T09:19:40.853Z,101958.05
2018-06-28T09:22:09.543Z,101950.22
2018-06-28T09:24:38.111Z,101947.09
2018-06-28T09:27:06.221Z,101948.05
2018-06-28T09:29:34.738Z,101942.70
2018-06-28T09:32:03.170Z,101949.53
2018-06-28T09:34:31.292Z,101935.63
2018-06-28T09:36:59.900Z,101938.70
2018-06-28T09:39:28.594Z,101940.56
2018-06-28T09:41:57.035Z,101941.07
2018-06-28T09:44:25.141Z,101935.23
2018-06-28T09:46:53.822Z,101931.28
2018-06-28T09:49:21.941Z,101926.53
2018-06-28T09:51:50.049Z,101935.31
2018-06-28T09:54:18.206Z,101928.16
2018-06-28T09:56:46.646Z,101923.33
2018-06-28T09:59:15.068Z,101908.76
2018-06-28T10:01:43.517Z,101918.98
2018-06-28T10:04:11.669Z,101911.95
2018-06-28T10:06:39.770Z,101910.05
2018-06-28T10:09:08.703Z,101914.75
2018-06-28T10:11:37.150Z,101914.23
2018-06-28T10:14:05.284Z,101918.06
2018-06-28T10:16:33.798Z,101914.36
2018-06-28T10:19:02.281Z,101903.53
2018-06-28T10:21:30.830Z,101899.96
2018-06-28T10:23:59.265Z,101901.52
2018-06-28T10:26:27.974Z,101905.23
2018-06-28T10:28:56.464Z,101892.86
2018-06-28T10:31:24.944Z,101890.54
2018-06-28T10:33:53.641Z,101876.80
2018-06-28T10:36:22.353Z,101882.56
2018-06-28T10:38:50.796Z,101881.36
2018-06-28T10:41:18.929Z,101873.09
2018-06-28T10:43:47.359Z,101874.37
2018-06-28T10:46:15.807Z,101870.78
2018-06-28T10:48:44.277Z,101868.66
2018-06-28T10:51:12.743Z,101874.83
2018-06-28T10:53:40.818Z,101873.89
2018-06-28T10:56:08.933Z,101875.09
2018-06-28T10:58:37.050Z,101864.41
2018-06-28T11:01:05.548Z,101866.06
2018-06-28T11:03:33.990Z,101868.75
2018-06-28T11:06:02.420Z,101846.74
2018-06-28T11:08:30.849Z,101852.39
2018-06-28T11:10:59.217Z,101851.45
2018-06-28T11:13:27.313Z,101855.97
2018-06-28T11:15:55.630Z,101852.25
2018-06-28T11:18:23.729Z,101846.83
2018-06-28T11:20:51.874Z,101838.62
2018-06-28T11:23:20.329Z,101844.98
2018-06-28T11:25:48.772Z,101837.70
2018-06-28T11:28:17.192Z,101819.28
2018-06-28T11:30:45.657Z,101836.95
2018-06-28T11:33:13.753Z,101831.70
2018-06-28T11:35:42.221Z,101837.88
2018-06-28T11:38:10.668Z,101824.62
2018-06-28T11:40:38.802Z,101825.76
2018-06-28T11:43:07.253Z,101820.27
2018-06-28T11:45:35.474Z,101816.13
2018-06-28T11:48:04.133Z,101810.39
2018-06-28T11:50:32.592Z,101807.34
2018-06-28T11:53:01.035Z,101802.45
2018-06-28T11:55:29.145Z,101807.58
2018-06-28T11:57:57.265Z,101805.70
2018-06-28T12:00:25.926Z,101801.41
2018-06-28T12:02:54.222Z,101793.70
2018-06-28T12:05:22.341Z,101791.21
2018-06-28T12:07:50.981Z,101791.47
2018-06-28T12:10:19.442Z,101793.09
2018-06-28T12:12:47.600Z,101774.07
2018-06-28T12:15:16.252Z,101775.78
2018-06-28T12:17:44.900Z,101783.12
2018-06-28T12:20:13.544Z,101784.58
2018-06-28T12:22:41.650Z,101780.70
2018-06-28T12:25:10.118Z,101778.77
2018-06-28T12:27:38.284Z,101778.63
2018-06-28T12:30:06.625Z,101776.47
2018-06-28T12:32:35.081Z,101771.00
2018-06-28T12:35:03.215Z,101766.39
2018-06-28T12:37:31.623Z,101772.91
2018-06-28T12:39:59.974Z,101761.39
2018-06-28T12:42:28.444Z,101764.77
2018-06-28T12:44:57.094Z,101751.73
2018-06-28T12:47:39.835Z,101755.73
2018-06-28T12:50:08.414Z,101750.30
2018-06-28T12:52:41.821Z,101740.69
2018-06-28T12:55:09.929Z,101742.98
2018-06-28T12:57:38.050Z,101732.92
2018-06-28T13:00:06.826Z,101727.27
2018-06-28T13:02:35.333Z,101719.27
2018-06-28T13:05:04.018Z,101722.44
2018-06-28T13:07:32.378Z,101715.09
2018-06-28T13:10:00.489Z,101714.06
2018-06-28T13:12:28.954Z,101712.80
2018-06-28T13:14:57.067Z,101711.93
2018-06-28T13:17:25.201Z,101716.42
2018-06-28T13:19:53.356Z,101706.53
2018-06-28T13:22:21.968Z,101707.44
2018-06-28T13:24:50.659Z,101706.73
2018-06-28T13:27:18.930Z,101701.75
2018-06-28T13:29:47.601Z,101702.17
2018-06-28T13:32:15.700Z,101697.72
2018-06-28T13:34:43.841Z,101690.21
2018-06-28T13:37:11.964Z,101690.91
2018-06-28T13:39:40.920Z,101680.13
2018-06-28T13:42:09.815Z,101680.55
2018-06-28T13:44:38.332Z,101677.08
2018-06-28T13:47:06.466Z,101677.84
2018-06-28T13:49:34.837Z,101674.67
2018-06-28T13:52:02.955Z,101675.91
2018-06-28T13:54:31.306Z,101677.27
2018-06-28T13:56:59.954Z,101668.02
2018-06-28T13:59:28.592Z,101666.94
2018-06-28T14:01:56.958Z,101663.94
2018-06-28T14:04:25.086Z,101665.36
2018-06-28T14:06:53.625Z,101663.98
2018-06-28T14:09:22.403Z,101656.05
2018-06-28T14:11:51.222Z,101654.63
2018-06-28T14:14:19.322Z,101652.59
2018-06-28T14:16:47.769Z,101659.53
2018-06-28T14:19:15.878Z,101650.70
2018-06-28T14:21:44.330Z,101648.41
2018-06-28T14:24:12.768Z,101650.14
2018-06-28T14:26:41.121Z,101639.06
2018-06-28T14:29:09.645Z,101632.65
2018-06-28T14:31:37.969Z,101628.52
2018-06-28T14:34:06.417Z,101627.81
2018-06-28T14:36:34.740Z,101642.53
2018-06-28T14:39:02.881Z,101646.41
2018-06-28T14:41:31.025Z,101636.58
2018-06-28T14:43:59.636Z,101636.77
2018-06-28T14:46:27.757Z,101632.46
2018-06-28T14:48:55.865Z,101619.75
2018-06-28T14:51:23.986Z,101631.22
2018-06-28T14:53:52.117Z,101619.50
2018-06-28T14:56:20.423Z,101619.13
2018-06-28T14:58:48.878Z,101617.11
2018-06-28T15:01:16.991Z,101611.22
2018-06-28T15:03:45.636Z,101603.41
2018-06-28T15:06:14.090Z,101603.19
2018-06-28T15:08:42.526Z,101599.50
2018-06-28T15:11:10.637Z,101595.60
2018-06-28T15:13:39.086Z,101593.55
2018-06-28T15:16:07.462Z,101595.72
2018-06-28T15:18:35.849Z,101600.06
2018-06-28T15:21:03.967Z,101588.78
2018-06-28T15:23:32.065Z,101592.97
2018-06-28T15:26:00.418Z,101589.24
2018-06-28T15:28:29.133Z,101582.20
2018-06-28T15:30:57.241Z,101582.86
2018-06-28T15:33:25.650Z,101576.77
2018-06-28T15:35:54.249Z,101568.36
2018-06-28T15:38:22.475Z,101564.33
2018-06-28T15:40:51.162Z,101564.64
2018-06-28T15:43:19.669Z,101571.78
2018-06-28T15:45:48.180Z,101567.83
2018-06-28T15:48:16.790Z,101563.88
2018-06-28T15:50:45.218Z,101568.30
2018-06-28T15:53:13.660Z,101557.86
2018-06-28T15:55:42.260Z,101551.73
2018-06-28T15:58:10.717Z,101555.14
2018-06-28T16:00:39.162Z,101545.70
2018-06-28T16:03:07.613Z,101542.77
2018-06-28T16:05:36.250Z,101539.56
2018-06-28T16:08:04.520Z,101547.78
2018-06-28T16:10:32.624Z,101540.81
2018-06-28T16:13:01.346Z,101545.55
2018-06-28T16:15:29.600Z,101542.33
2018-06-28T16:17:58.042Z,101537.47
2018-06-28T16:20:26.501Z,101544.52
2018-06-28T16:22:54.974Z,101541.16
2018-06-28T16:25:23.401Z,101547.95
2018-06-28T16:27:51.517Z,101539.30
2018-06-28T16:30:19.966Z,101543.08
2018-06-28T16:32:48.313Z,101536.64
2018-06-28T16:35:16.765Z,101530.76
2018-06-28T16:37:45.478Z,101530.62
2018-06-28T16:40:13.936Z,101532.47
2018-06-28T16:42:42.084Z,101529.16
2018-06-28T16:45:10.529Z,101529.09
2018-06-28T16:47:38.973Z,101526.28
2018-06-28T16:50:07.105Z,101527.34
2018-06-28T16:52:35.665Z,101527.46
2018-06-28T16:55:03.922Z,101528.13
2018-06-28T16:57:32.029Z,101518.33
2018-06-28T17:00:00.766Z,101514.81
2018-06-28T17:02:29.209Z,101517.33
2018-06-28T17:04:57.664Z,101523.30
2018-06-28T17:07:26.293Z,101521.48
2018-06-28T17:09:54.780Z,101516.05
2018-06-28T17:12:23.270Z,101515.53
2018-06-28T17:14:52.059Z,101510.61
2018-06-28T17:17:20.167Z,101510.48
2018-06-28T17:19:48.641Z,101513.41
2018-06-28T17:22:16.758Z,101516.76
2018-06-28T17:24:45.206Z,101513.36
2018-06-28T17:27:13.649Z,101505.40
2018-06-28T17:29:42.103Z,101510.95
2018-06-28T17:32:10.589Z,101508.05
2018-06-28T17:34:38.869Z,101511.94
2018-06-28T17:37:07.059Z,101508.44
2018-06-28T17:39:35.169Z,101505.25
2018-06-28T17:42:03.525Z,101500.74
2018-06-28T17:44:31.679Z,101506.95
2018-06-28T17:47:00.122Z,101513.27
2018-06-28T17:49:28.576Z,101509.66
2018-06-28T17:51:56.671Z,101507.11
2018-06-28T17:54:25.297Z,101511.59
2018-06-28T17:56:54.018Z,101520.98
2018-06-28T17:59:22.479Z,101515.66
2018-06-28T18:01:50.912Z,101516.52
2018-06-28T18:04:19.655Z,101515.45
2018-06-28T18:06:47.789Z,101513.61
2018-06-28T18:09:16.230Z,101513.92
2018-06-28T18:11:44.341Z,101513.62
2018-06-28T18:14:12.469Z,101516.70
2018-06-28T18:16:40.574Z,101516.68
2018-06-28T18:19:09.013Z,101520.82
2018-06-28T18:21:37.478Z,101518.39
2018-06-28T18:24:05.842Z,101518.88
2018-06-28T18:26:34.559Z,101514.59
2018-06-28T18:29:02.982Z,101515.61
2018-06-28T18:31:31.454Z,101514.70
2018-06-28T18:33:59.565Z,101517.66
2018-06-28T18:36:27.701Z,101508.37
2018-06-28T18:38:56.206Z,101519.73
2018-06-28T18:41:24.671Z,101514.89
2018-06-28T18:43:52.776Z,101525.41
2018-06-28T18:46:21.121Z,101519.17
2018-06-28T18:48:49.545Z,101514.68
2018-06-28T18:51:18.238Z,101516.13
2018-06-28T18:53:46.666Z,101522.48
2018-06-28T18:56:15.132Z,101517.56
2018-06-28T18:58:43.233Z,101517.12
2018-06-28T19:01:11.570Z,101518.56
2018-06-28T19:03:39.681Z,101521.43
2018-06-28T19:06:08.385Z,101520.66
2018-06-28T19:08:37.118Z,101525.83
2018-06-28T19:11:06.111Z,101530.44
2018-06-28T19:13:38.745Z,101524.94
2018-06-28T19:16:12.394Z,101531.87
2018-06-28T19:18:40.819Z,101532.33
2018-06-28T19:21:14.547Z,101530.98
2018-06-28T19:23:48.161Z,101538.41
2018-06-28T19:26:16.501Z,101539.91
2018-06-28T19:28:45.260Z,101538.41
2018-06-28T19:31:19.334Z,101541.50
2018-06-28T19:33:47.839Z,101543.72
2018-06-28T19:36:16.346Z,101540.41
2018-06-28T19:38:50.212Z,101534.81
2018-06-28T19:41:23.820Z,101547.84
2018-06-28T19:43:53.325Z,101541.03
2018-06-28T19:46:21.872Z,101557.11
2018-06-28T19:48:50.326Z,101555.83
2018-06-28T19:51:24.242Z,101561.95
2018-06-28T19:53:52.366Z,101565.45
2018-06-28T19:56:20.481Z,101560.52
2018-06-28T19:58:49.104Z,101568.48
2018-06-28T20:01:23.018Z,101572.44
2018-06-28T20:03:56.639Z,101570.78
2018-06-28T20:06:25.086Z,101568.96
2018-06-28T20:08:53.239Z,101568.97
2018-06-28T20:11:21.982Z,101574.88
2018-06-28T20:13:55.499Z,101569.91
2018-06-28T20:16:29.144Z,101572.02
2018-06-28T20:19:03.136Z,101571.88
2018-06-28T20:21:31.825Z,101575.36
2018-06-28T20:24:00.303Z,101576.73
2018-06-28T20:26:34.057Z,101581.92
2018-06-28T20:29:07.898Z,101582.47
2018-06-28T20:31:41.853Z,101585.91
2018-06-28T20:34:12.046Z,101589.03
2018-06-28T20:36:40.733Z,101588.00
2018-06-28T20:39:09.878Z,101585.78
2018-06-28T20:41:38.545Z,101589.09
2018-06-28T20:44:07.114Z,101586.37
2018-06-28T20:46:35.657Z,101586.02
2018-06-28T20:49:03.841Z,101594.45
2018-06-28T20:51:31.962Z,101591.02
2018-06-28T20:54:00.410Z,101595.48
2018-06-28T20:56:28.866Z,101597.73
2018-06-28T20:58:57.361Z,101597.91
2018-06-28T21:01:25.994Z,101594.81
2018-06-28T21:03:55.479Z,101597.92
2018-06-28T21:06:24.432Z,101596.55
2018-06-28T21:08:52.953Z,101596.72
2018-06-28T21:11:21.398Z,101597.44
2018-06-28T21:13:49.856Z,101598.12
2018-06-28T21:16:18.505Z,101601.00
2018-06-28T21:18:46.618Z,101602.89
2018-06-28T21:21:14.825Z,101593.80
2018-06-28T21:23:43.530Z,101597.94
2018-06-28T21:26:11.645Z,101602.91
2018-06-28T21:28:40.051Z,101605.98
2018-06-28T21:31:08.505Z,101601.00
2018-06-28T21:33:36.638Z,101605.63
2018-06-28T21:36:05.176Z,101604.55
2018-06-28T21:38:33.642Z,101607.08
2018-06-28T21:41:02.101Z,101602.95
2018-06-28T21:43:30.556Z,101607.70
2018-06-28T21:45:59.182Z,101605.63
2018-06-28T21:48:27.305Z,101604.06
2018-06-28T21:50:55.747Z,101603.50
2018-06-28T21:53:24.221Z,101598.16
2018-06-28T21:55:52.657Z,101605.29
2018-06-28T21:58:21.129Z,101598.92
2018-06-28T22:00:49.834Z,101598.71
2018-06-28T22:03:17.973Z,101596.24
2018-06-28T22:05:46.624Z,101597.96
2018-06-28T22:08:14.849Z,101601.36
2018-06-28T22:10:43.393Z,101602.03
2018-06-28T22:13:11.861Z,101595.17
2018-06-28T22:15:40.310Z,101586.24
2018-06-28T22:18:08.965Z,101598.34
2018-06-28T22:20:37.073Z,101594.36
2018-06-28T22:23:05.199Z,101591.61
2018-06-28T22:25:33.845Z,101594.48
2018-06-28T22:28:02.307Z,101587.93
2018-06-28T22:30:31.138Z,101589.86
2018-06-28T22:32:59.593Z,101581.25
2018-06-28T22:35:28.050Z,101585.53
2018-06-28T22:37:56.429Z,101582.91
2018-06-28T22:40:24.609Z,101585.98
2018-06-28T22:42:53.073Z,101586.81
2018-06-28T22:45:21.510Z,101590.56
2018-06-28T22:47:49.969Z,101587.13
2018-06-28T22:50:18.437Z,101585.63
2018-06-28T22:52:46.746Z,101595.70
2018-06-28T22:55:15.198Z,101595.98
2018-06-28T22:57:43.645Z,101601.73
2018-06-28T23:00:12.802Z,101602.86
2018-06-28T23:02:41.449Z,101604.03
2018-06-28T23:05:10.134Z,101598.21
2018-06-28T23:07:38.882Z,101600.40
2018-06-28T23:10:07.741Z,101608.71
2018-06-28T23:12:36.417Z,101610.05
2018-06-28T23:15:04.629Z,101605.21
2018-06-28T23:17:32.746Z,101602.78
2018-06-28T23:20:01.202Z,101603.30
2018-06-28T23:22:38.954Z,101601.94
2018-06-28T23:25:07.473Z,101595.23
2018-06-28T23:27:35.853Z,101597.61
2018-06-28T23:30:04.290Z,101595.20
2018-06-28T23:32:32.751Z,101604.06
2018-06-28T23:35:01.203Z,101600.13
2018-06-28T23:37:29.640Z,101592.58
2018-06-28T23:39:58.098Z,101594.11
2018-06-28T23:42:26.745Z,101594.92
2018-06-28T23:44:55.205Z,101591.58
2018-06-28T23:47:23.318Z,101594.64
2018-06-28T23:49:52.065Z,101600.03
2018-06-28T23:52:20.837Z,101595.84
2018-06-28T23:54:49.046Z,101593.37
2018-06-28T23:57:17.721Z,101601.98
2018-06-28T23:59:45.834Z,101592.81
